createdAt,value
2023-06-01T00:00:25.290Z,1017.40
2023-06-01T00:01:26.172Z,1017.40
2023-06-01T00:02:27.216Z,1017.39
2023-06-01T00:03:28.079Z,1017.39
2023-06-01T00:04:28.619Z,1017.38
2023-06-01T00:05:29.070Z,1017.37
2023-06-01T00:06:29.943Z,1017.38
2023-06-01T00:07:30.838Z,1017.38
2023-06-01T00:08:31.726Z,1017.39
2023-06-01T00:09:32.649Z,1017.41
2023-06-01T00:10:33.539Z,1017.44
2023-06-01T00:11:34.440Z,1017.44
2023-06-01T00:12:35.332Z,1017.45
2023-06-01T00:13:36.256Z,1017.45
2023-06-01T00:14:37.147Z,1017.46
2023-06-01T00:15:38.054Z,1017.48
2023-06-01T00:16:38.964Z,1017.46
2023-06-01T00:17:39.884Z,1017.47
2023-06-01T00:18:40.792Z,1017.49
2023-06-01T00:19:41.680Z,1017.50
2023-06-01T00:20:42.564Z,1017.47
2023-06-01T00:21:43.479Z,1017.47
2023-06-01T00:22:44.407Z,1017.49
2023-06-01T00:23:45.360Z,1017.47
2023-06-01T00:24:46.247Z,1017.47
2023-06-01T00:25:47.144Z,1017.49
2023-06-01T00:26:48.037Z,1017.50
2023-06-01T00:27:48.933Z,1017.51
2023-06-01T00:28:49.839Z,1017.49
2023-06-01T00:29:50.742Z,1017.48
2023-06-01T00:30:51.632Z,1017.49
2023-06-01T00:31:52.590Z,1017.48
2023-06-01T00:32:53.504Z,1017.45
2023-06-01T00:33:54.396Z,1017.44
2023-06-01T00:34:55.281Z,1017.43
2023-06-01T00:35:56.167Z,1017.40
2023-06-01T00:36:57.060Z,1017.40
2023-06-01T00:37:58.015Z,1017.40
2023-06-01T00:38:58.900Z,1017.39
2023-06-01T00:39:59.780Z,1017.42
2023-06-01T00:41:01.003Z,1017.42
2023-06-01T00:42:01.522Z,1017.45
2023-06-01T00:43:02.396Z,1017.46
2023-06-01T00:44:03.295Z,1017.47
2023-06-01T00:45:04.185Z,1017.47
2023-06-01T00:46:05.067Z,1017.47
2023-06-01T00:47:06.041Z,1017.47
2023-06-01T00:48:06.533Z,1017.48
2023-06-01T00:49:07.419Z,1017.47
2023-06-01T00:50:08.312Z,1017.47
2023-06-01T00:51:09.202Z,1017.47
2023-06-01T00:52:10.098Z,1017.47
2023-06-01T00:53:10.994Z,1017.46
2023-06-01T00:54:11.878Z,1017.47
2023-06-01T00:55:12.764Z,1017.47
2023-06-01T00:56:13.765Z,1017.44
2023-06-01T00:57:14.716Z,1017.44
2023-06-01T00:58:15.095Z,1017.40
2023-06-01T00:59:16.000Z,1017.43
2023-06-01T01:00:16.872Z,1017.43
2023-06-01T01:01:17.840Z,1017.40
2023-06-01T01:02:18.713Z,1017.45
2023-06-01T01:03:19.608Z,1017.44
2023-06-01T01:04:20.560Z,1017.41
2023-06-01T01:05:21.472Z,1017.39
2023-06-01T01:06:22.430Z,1017.41
2023-06-01T01:07:23.336Z,1017.43
2023-06-01T01:08:24.264Z,1017.43
2023-06-01T01:09:25.199Z,1017.42
2023-06-01T01:10:26.087Z,1017.44
2023-06-01T01:11:26.981Z,1017.44
2023-06-01T01:12:27.875Z,1017.43
2023-06-01T01:13:28.755Z,1017.45
2023-06-01T01:14:29.393Z,1017.44
2023-06-01T01:15:30.309Z,1017.42
2023-06-01T01:16:31.345Z,1017.41
2023-06-01T01:17:31.836Z,1017.37
2023-06-01T01:18:32.731Z,1017.39
2023-06-01T01:19:33.656Z,1017.40
2023-06-01T01:20:34.530Z,1017.39
2023-06-01T01:21:35.500Z,1017.36
2023-06-01T01:22:36.370Z,1017.42
2023-06-01T01:23:37.262Z,1017.38
2023-06-01T01:24:38.176Z,1017.40
2023-06-01T01:25:39.075Z,1017.38
2023-06-01T01:26:39.965Z,1017.37
2023-06-01T01:27:40.864Z,1017.35
2023-06-01T01:28:41.769Z,1017.35
2023-06-01T01:29:42.695Z,1017.33
2023-06-01T01:30:43.623Z,1017.30
2023-06-01T01:31:44.057Z,1017.33
2023-06-01T01:32:45.018Z,1017.34
2023-06-01T01:33:45.898Z,1017.34
2023-06-01T01:34:46.776Z,1017.35
2023-06-01T01:35:47.679Z,1017.36
2023-06-01T01:36:48.576Z,1017.38
2023-06-01T01:37:49.457Z,1017.38
2023-06-01T01:38:50.358Z,1017.40
2023-06-01T01:39:51.244Z,1017.40
2023-06-01T01:40:52.132Z,1017.41
2023-06-01T01:41:53.011Z,1017.40
2023-06-01T01:42:53.927Z,1017.40
2023-06-01T01:43:54.827Z,1017.40
2023-06-01T01:44:55.726Z,1017.39
2023-06-01T01:45:56.622Z,1017.38
2023-06-01T01:46:57.526Z,1017.40
2023-06-01T01:47:58.509Z,1017.39
2023-06-01T01:48:59.465Z,1017.39
2023-06-01T01:50:00.393Z,1017.41
2023-06-01T01:51:01.484Z,1017.37
2023-06-01T01:52:02.029Z,1017.41
2023-06-01T01:53:02.924Z,1017.42
2023-06-01T01:54:03.825Z,1017.41
2023-06-01T01:55:04.706Z,1017.40
2023-06-01T01:56:05.592Z,1017.38
2023-06-01T01:57:06.516Z,1017.37
2023-06-01T01:58:07.431Z,1017.38
2023-06-01T01:59:08.320Z,1017.38
2023-06-01T02:00:09.240Z,1017.38
2023-06-01T02:01:10.095Z,1017.37
2023-06-01T02:02:11.110Z,1017.38
2023-06-01T02:03:11.655Z,1017.36
2023-06-01T02:04:12.135Z,1017.34
2023-06-01T02:05:13.018Z,1017.35
2023-06-01T02:06:13.928Z,1017.35
2023-06-01T02:07:14.841Z,1017.34
2023-06-01T02:08:15.736Z,1017.34
2023-06-01T02:09:16.608Z,1017.34
2023-06-01T02:10:17.520Z,1017.35
2023-06-01T02:11:18.393Z,1017.35
2023-06-01T02:12:19.295Z,1017.35
2023-06-01T02:13:20.188Z,1017.33
2023-06-01T02:14:21.076Z,1017.33
2023-06-01T02:15:21.980Z,1017.33
2023-06-01T02:16:22.966Z,1017.33
2023-06-01T02:17:23.855Z,1017.35
2023-06-01T02:18:24.726Z,1017.33
2023-06-01T02:19:25.627Z,1017.34
2023-06-01T02:20:26.672Z,1017.34
2023-06-01T02:21:27.134Z,1017.34
2023-06-01T02:22:27.990Z,1017.39
2023-06-01T02:23:30.084Z,1017.34
2023-06-01T02:24:29.794Z,1017.33
2023-06-01T02:25:30.710Z,1017.32
2023-06-01T02:26:31.601Z,1017.32
2023-06-01T02:27:32.503Z,1017.33
2023-06-01T02:28:33.397Z,1017.33
2023-06-01T02:29:34.291Z,1017.33
2023-06-01T02:30:35.201Z,1017.31
2023-06-01T02:31:36.147Z,1017.35
2023-06-01T02:32:37.019Z,1017.33
2023-06-01T02:33:37.923Z,1017.33
2023-06-01T02:34:38.870Z,1017.33
2023-06-01T02:35:39.785Z,1017.31
2023-06-01T02:36:40.720Z,1017.31
2023-06-01T02:37:41.690Z,1017.33
2023-06-01T02:38:42.602Z,1017.35
2023-06-01T02:39:43.518Z,1017.35
2023-06-01T02:40:44.423Z,1017.36
2023-06-01T02:41:45.308Z,1017.37
2023-06-01T02:42:46.189Z,1017.38
2023-06-01T02:43:47.062Z,1017.40
2023-06-01T02:44:47.984Z,1017.41
2023-06-01T02:45:48.872Z,1017.42
2023-06-01T02:46:49.760Z,1017.43
2023-06-01T02:47:50.664Z,1017.46
2023-06-01T02:48:51.561Z,1017.45
2023-06-01T02:49:52.465Z,1017.45
2023-06-01T02:50:53.359Z,1017.46
2023-06-01T02:51:54.258Z,1017.45
2023-06-01T02:52:55.131Z,1017.46
2023-06-01T02:53:56.070Z,1017.45
2023-06-01T02:54:56.941Z,1017.46
2023-06-01T02:55:57.825Z,1017.46
2023-06-01T02:56:58.709Z,1017.46
2023-06-01T02:57:59.636Z,1017.46
2023-06-01T02:59:00.556Z,1017.45
2023-06-01T03:00:01.434Z,1017.45
2023-06-01T03:01:02.552Z,1017.44
2023-06-01T03:02:03.068Z,1017.45
2023-06-01T03:03:04.105Z,1017.45
2023-06-01T03:04:04.606Z,1017.45
2023-06-01T03:05:05.461Z,1017.44
2023-06-01T03:06:06.349Z,1017.42
2023-06-01T03:07:07.224Z,1017.40
2023-06-01T03:08:08.135Z,1017.39
2023-06-01T03:09:09.024Z,1017.38
2023-06-01T03:10:09.924Z,1017.37
2023-06-01T03:11:10.823Z,1017.37
2023-06-01T03:12:11.737Z,1017.35
2023-06-01T03:13:12.649Z,1017.34
2023-06-01T03:14:13.557Z,1017.32
2023-06-01T03:15:14.416Z,1017.31
2023-06-01T03:16:15.339Z,1017.29
2023-06-01T03:17:16.211Z,1017.31
2023-06-01T03:18:17.169Z,1017.32
2023-06-01T03:19:18.047Z,1017.32
2023-06-01T03:20:18.920Z,1017.31
2023-06-01T03:21:19.833Z,1017.35
2023-06-01T03:22:20.736Z,1017.35
2023-06-01T03:23:21.616Z,1017.37
2023-06-01T03:24:22.512Z,1017.38
2023-06-01T03:25:23.394Z,1017.37
2023-06-01T03:26:24.296Z,1017.37
2023-06-01T03:27:25.209Z,1017.38
2023-06-01T03:28:26.094Z,1017.37
2023-06-01T03:29:26.987Z,1017.38
2023-06-01T03:30:27.893Z,1017.39
2023-06-01T03:31:28.878Z,1017.40
2023-06-01T03:32:29.777Z,1017.41
2023-06-01T03:33:30.620Z,1017.39
2023-06-01T03:34:31.504Z,1017.39
2023-06-01T03:35:32.410Z,1017.38
2023-06-01T03:36:33.296Z,1017.38
2023-06-01T03:37:34.278Z,1017.37
2023-06-01T03:38:35.118Z,1017.37
2023-06-01T03:39:36.016Z,1017.36
2023-06-01T03:40:36.936Z,1017.36
2023-06-01T03:41:37.831Z,1017.35
2023-06-01T03:42:38.748Z,1017.34
2023-06-01T03:43:39.626Z,1017.34
2023-06-01T03:44:40.526Z,1017.34
2023-06-01T03:45:41.437Z,1017.33
2023-06-01T03:46:42.341Z,1017.32
2023-06-01T03:47:43.284Z,1017.32
2023-06-01T03:48:44.202Z,1017.31
2023-06-01T03:49:45.103Z,1017.31
2023-06-01T03:50:46.019Z,1017.29
2023-06-01T03:51:46.917Z,1017.27
2023-06-01T03:52:47.806Z,1017.27
2023-06-01T03:53:48.692Z,1017.28
2023-06-01T03:54:49.805Z,1017.26
2023-06-01T03:55:50.227Z,1017.27
2023-06-01T03:56:51.109Z,1017.27
2023-06-01T03:57:52.010Z,1017.26
2023-06-01T03:58:52.885Z,1017.27
2023-06-01T03:59:53.805Z,1017.26
2023-06-01T04:00:54.721Z,1017.25
2023-06-01T04:01:55.628Z,1017.23
2023-06-01T04:02:56.709Z,1017.23
2023-06-01T04:03:57.213Z,1017.22
2023-06-01T04:04:57.685Z,1017.21
2023-06-01T04:05:58.577Z,1017.21
2023-06-01T04:06:59.476Z,1017.21
2023-06-01T04:08:00.358Z,1017.21
2023-06-01T04:09:01.302Z,1017.22
2023-06-01T04:10:02.197Z,1017.22
2023-06-01T04:11:03.264Z,1017.21
2023-06-01T04:12:03.891Z,1017.20
2023-06-01T04:13:04.779Z,1017.19
2023-06-01T04:14:05.686Z,1017.20
2023-06-01T04:15:06.570Z,1017.18
2023-06-01T04:16:07.482Z,1017.19
2023-06-01T04:17:08.466Z,1017.18
2023-06-01T04:18:08.979Z,1017.18
2023-06-01T04:19:09.440Z,1017.19
2023-06-01T04:20:10.337Z,1017.19
2023-06-01T04:21:11.214Z,1017.20
2023-06-01T04:22:12.102Z,1017.20
2023-06-01T04:23:13.014Z,1017.21
2023-06-01T04:24:13.924Z,1017.22
2023-06-01T04:25:14.807Z,1017.22
2023-06-01T04:26:15.697Z,1017.22
2023-06-01T04:27:16.609Z,1017.22
2023-06-01T04:28:17.520Z,1017.23
2023-06-01T04:29:18.402Z,1017.23
2023-06-01T04:30:19.297Z,1017.23
2023-06-01T04:31:20.349Z,1017.22
2023-06-01T04:32:20.940Z,1017.20
2023-06-01T04:33:21.839Z,1017.19
2023-06-01T04:34:22.747Z,1017.18
2023-06-01T04:35:23.649Z,1017.19
2023-06-01T04:36:24.529Z,1017.19
2023-06-01T04:37:25.457Z,1017.18
2023-06-01T04:38:26.405Z,1017.17
2023-06-01T04:39:27.254Z,1017.18
2023-06-01T04:40:28.148Z,1017.18
2023-06-01T04:41:29.767Z,1017.20
2023-06-01T04:42:29.824Z,1017.22
2023-06-01T04:43:30.739Z,1017.22
2023-06-01T04:44:31.624Z,1017.24
2023-06-01T04:45:32.524Z,1017.23
2023-06-01T04:46:33.476Z,1017.24
2023-06-01T04:47:34.396Z,1017.25
2023-06-01T04:48:35.286Z,1017.26
2023-06-01T04:49:36.212Z,1017.27
2023-06-01T04:50:37.108Z,1017.28
2023-06-01T04:51:38.102Z,1017.29
2023-06-01T04:52:38.549Z,1017.29
2023-06-01T04:53:39.512Z,1017.29
2023-06-01T04:54:39.975Z,1017.29
2023-06-01T04:55:40.882Z,1017.27
2023-06-01T04:56:41.829Z,1017.26
2023-06-01T04:57:42.703Z,1017.25
2023-06-01T04:58:43.583Z,1017.25
2023-06-01T04:59:44.492Z,1017.24
2023-06-01T05:00:45.396Z,1017.22
2023-06-01T05:01:46.399Z,1017.22
2023-06-01T05:02:46.797Z,1017.22
2023-06-01T05:03:47.748Z,1017.22
2023-06-01T05:04:48.619Z,1017.22
2023-06-01T05:05:49.532Z,1017.22
2023-06-01T05:06:50.422Z,1017.22
2023-06-01T05:07:51.313Z,1017.22
2023-06-01T05:08:52.189Z,1017.22
2023-06-01T05:09:53.104Z,1017.23
2023-06-01T05:10:53.996Z,1017.23
2023-06-01T05:11:54.865Z,1017.21
2023-06-01T05:12:55.769Z,1017.21
2023-06-01T05:13:56.659Z,1017.22
2023-06-01T05:14:57.583Z,1017.22
2023-06-01T05:15:58.465Z,1017.21
2023-06-01T05:16:59.337Z,1017.24
2023-06-01T05:18:00.317Z,1017.24
2023-06-01T05:19:01.233Z,1017.23
2023-06-01T05:20:02.123Z,1017.26
2023-06-01T05:21:03.408Z,1017.28
2023-06-01T05:22:04.040Z,1017.31
2023-06-01T05:23:04.898Z,1017.33
2023-06-01T05:24:05.821Z,1017.31
2023-06-01T05:25:06.712Z,1017.32
2023-06-01T05:26:07.613Z,1017.33
2023-06-01T05:27:08.477Z,1017.31
2023-06-01T05:28:09.446Z,1017.29
2023-06-01T05:29:10.363Z,1017.29
2023-06-01T05:30:11.265Z,1017.29
2023-06-01T05:31:12.161Z,1017.27
2023-06-01T05:32:13.063Z,1017.27
2023-06-01T05:33:14.028Z,1017.27
2023-06-01T05:34:14.893Z,1017.25
2023-06-01T05:35:15.800Z,1017.24
2023-06-01T05:36:16.685Z,1017.25
2023-06-01T05:37:17.548Z,1017.27
2023-06-01T05:38:18.479Z,1017.29
2023-06-01T05:39:19.405Z,1017.30
2023-06-01T05:40:20.278Z,1017.30
2023-06-01T05:41:21.164Z,1017.29
2023-06-01T05:42:22.097Z,1017.31
2023-06-01T05:43:23.000Z,1017.30
2023-06-01T05:44:23.879Z,1017.28
2023-06-01T05:45:24.779Z,1017.28
2023-06-01T05:46:25.879Z,1017.28
2023-06-01T05:47:26.565Z,1017.27
2023-06-01T05:48:27.081Z,1017.28
2023-06-01T05:49:27.973Z,1017.28
2023-06-01T05:50:28.884Z,1017.28
2023-06-01T05:51:29.816Z,1017.26
2023-06-01T05:52:30.716Z,1017.24
2023-06-01T05:53:31.594Z,1017.25
2023-06-01T05:54:32.500Z,1017.24
2023-06-01T05:55:33.417Z,1017.24
2023-06-01T05:56:34.331Z,1017.27
2023-06-01T05:57:35.272Z,1017.29
2023-06-01T05:58:36.129Z,1017.31
2023-06-01T05:59:37.032Z,1017.30
2023-06-01T06:00:37.942Z,1017.31
2023-06-01T06:01:38.521Z,1017.30
2023-06-01T06:02:39.510Z,1017.31
2023-06-01T06:03:40.158Z,1017.30
2023-06-01T06:04:40.579Z,1017.32
2023-06-01T06:05:41.518Z,1017.33
2023-06-01T06:06:42.427Z,1017.32
2023-06-01T06:07:43.331Z,1017.34
2023-06-01T06:08:44.217Z,1017.32
2023-06-01T06:09:45.097Z,1017.31
2023-06-01T06:10:46.029Z,1017.32
2023-06-01T06:11:46.924Z,1017.35
2023-06-01T06:12:47.801Z,1017.35
2023-06-01T06:13:48.689Z,1017.36
2023-06-01T06:14:49.595Z,1017.36
2023-06-01T06:15:50.507Z,1017.37
2023-06-01T06:16:51.492Z,1017.37
2023-06-01T06:17:52.357Z,1017.36
2023-06-01T06:18:53.229Z,1017.35
2023-06-01T06:19:54.142Z,1017.35
2023-06-01T06:20:55.030Z,1017.35
2023-06-01T06:21:55.970Z,1017.36
2023-06-01T06:22:56.830Z,1017.36
2023-06-01T06:23:57.716Z,1017.36
2023-06-01T06:24:58.633Z,1017.35
2023-06-01T06:25:59.513Z,1017.37
2023-06-01T06:27:00.440Z,1017.37
2023-06-01T06:28:01.299Z,1017.39
2023-06-01T06:29:02.298Z,1017.40
2023-06-01T06:30:02.751Z,1017.42
2023-06-01T06:31:03.969Z,1017.43
2023-06-01T06:32:04.170Z,1017.40
2023-06-01T06:33:06.204Z,1017.41
2023-06-01T06:34:06.026Z,1017.40
2023-06-01T06:35:06.916Z,1017.39
2023-06-01T06:36:07.795Z,1017.38
2023-06-01T06:37:08.689Z,1017.36
2023-06-01T06:38:09.614Z,1017.35
2023-06-01T06:39:10.520Z,1017.34
2023-06-01T06:40:11.420Z,1017.33
2023-06-01T06:41:12.301Z,1017.33
2023-06-01T06:42:13.200Z,1017.34
2023-06-01T06:43:14.089Z,1017.36
2023-06-01T06:44:14.979Z,1017.38
2023-06-01T06:45:15.862Z,1017.38
2023-06-01T06:46:16.764Z,1017.41
2023-06-01T06:47:17.700Z,1017.43
2023-06-01T06:48:18.722Z,1017.44
2023-06-01T06:49:19.584Z,1017.44
2023-06-01T06:50:20.481Z,1017.45
2023-06-01T06:51:21.364Z,1017.44
2023-06-01T06:52:22.261Z,1017.44
2023-06-01T06:53:23.169Z,1017.44
2023-06-01T06:54:24.076Z,1017.42
2023-06-01T06:55:24.970Z,1017.43
2023-06-01T06:56:25.858Z,1017.44
2023-06-01T06:57:26.769Z,1017.43
2023-06-01T06:58:27.662Z,1017.44
2023-06-01T06:59:28.548Z,1017.44
2023-06-01T07:00:29.500Z,1017.43
2023-06-01T07:01:30.437Z,1017.43
2023-06-01T07:02:31.407Z,1017.41
2023-06-01T07:03:32.382Z,1017.41
2023-06-01T07:04:32.747Z,1017.40
2023-06-01T07:05:33.636Z,1017.39
2023-06-01T07:06:34.556Z,1017.39
2023-06-01T07:07:35.458Z,1017.39
2023-06-01T07:08:36.328Z,1017.38
2023-06-01T07:09:37.217Z,1017.38
2023-06-01T07:10:38.105Z,1017.37
2023-06-01T07:11:39.027Z,1017.37
2023-06-01T07:12:39.946Z,1017.36
2023-06-01T07:13:40.812Z,1017.37
2023-06-01T07:14:41.693Z,1017.36
2023-06-01T07:15:42.617Z,1017.36
2023-06-01T07:16:43.618Z,1017.36
2023-06-01T07:17:44.083Z,1017.35
2023-06-01T07:18:44.927Z,1017.37
2023-06-01T07:19:45.821Z,1017.37
2023-06-01T07:20:46.733Z,1017.37
2023-06-01T07:21:47.690Z,1017.37
2023-06-01T07:22:48.565Z,1017.37
2023-06-01T07:23:49.458Z,1017.39
2023-06-01T07:24:50.361Z,1017.38
2023-06-01T07:25:51.275Z,1017.39
2023-06-01T07:26:52.171Z,1017.40
2023-06-01T07:27:53.059Z,1017.41
2023-06-01T07:28:53.945Z,1017.43
2023-06-01T07:29:54.856Z,1017.45
2023-06-01T07:30:55.747Z,1017.46
2023-06-01T07:31:56.752Z,1017.46
2023-06-01T07:32:57.290Z,1017.47
2023-06-01T07:33:58.204Z,1017.47
2023-06-01T07:34:59.110Z,1017.47
2023-06-01T07:36:00.145Z,1017.47
2023-06-01T07:37:15.386Z,1017.46
2023-06-01T07:38:02.371Z,1017.43
2023-06-01T07:39:02.259Z,1017.42
2023-06-01T07:40:03.158Z,1017.40
2023-06-01T07:41:04.215Z,1017.42
2023-06-01T07:42:04.636Z,1017.40
2023-06-01T07:43:05.527Z,1017.40
2023-06-01T07:44:06.436Z,1017.38
2023-06-01T07:45:07.331Z,1017.36
2023-06-01T07:46:08.298Z,1017.35
2023-06-01T07:47:09.152Z,1017.33
2023-06-01T07:48:11.157Z,1017.32
2023-06-01T07:49:10.747Z,1017.32
2023-06-01T07:50:11.638Z,1017.31
2023-06-01T07:51:12.528Z,1017.32
2023-06-01T07:52:13.420Z,1017.32
2023-06-01T07:53:14.315Z,1017.32
2023-06-01T07:54:15.234Z,1017.32
2023-06-01T07:55:16.122Z,1017.33
2023-06-01T07:56:17.004Z,1017.34
2023-06-01T07:57:17.895Z,1017.37
2023-06-01T07:58:18.811Z,1017.38
2023-06-01T07:59:19.708Z,1017.39
2023-06-01T08:00:20.586Z,1017.40
2023-06-01T08:01:21.494Z,1017.40
2023-06-01T08:02:22.398Z,1017.40
2023-06-01T08:03:23.390Z,1017.39
2023-06-01T08:04:24.283Z,1017.38
2023-06-01T08:05:25.250Z,1017.37
2023-06-01T08:06:26.195Z,1017.37
2023-06-01T08:07:26.652Z,1017.37
2023-06-01T08:08:27.535Z,1017.37
2023-06-01T08:09:28.435Z,1017.38
2023-06-01T08:10:29.328Z,1017.39
2023-06-01T08:11:30.254Z,1017.39
2023-06-01T08:12:31.160Z,1017.36
2023-06-01T08:13:32.051Z,1017.37
2023-06-01T08:14:32.948Z,1017.38
2023-06-01T08:15:33.849Z,1017.39
2023-06-01T08:16:34.821Z,1017.37
2023-06-01T08:17:35.753Z,1017.36
2023-06-01T08:18:36.217Z,1017.34
2023-06-01T08:19:37.101Z,1017.32
2023-06-01T08:20:37.986Z,1017.33
2023-06-01T08:21:38.952Z,1017.32
2023-06-01T08:22:39.386Z,1017.31
2023-06-01T08:23:40.297Z,1017.30
2023-06-01T08:24:41.185Z,1017.26
2023-06-01T08:25:42.104Z,1017.26
2023-06-01T08:26:42.991Z,1017.25
2023-06-01T08:27:43.906Z,1017.25
2023-06-01T08:28:44.796Z,1017.26
2023-06-01T08:29:45.672Z,1017.23
2023-06-01T08:30:46.624Z,1017.24
2023-06-01T08:31:47.559Z,1017.25
2023-06-01T08:32:48.484Z,1017.27
2023-06-01T08:33:49.341Z,1017.28
2023-06-01T08:34:50.238Z,1017.29
2023-06-01T08:35:51.158Z,1017.29
2023-06-01T08:36:53.394Z,1017.28
2023-06-01T08:37:53.008Z,1017.26
2023-06-01T08:38:53.908Z,1017.25
2023-06-01T08:39:54.825Z,1017.26
2023-06-01T08:40:55.708Z,1017.27
2023-06-01T08:41:56.595Z,1017.29
2023-06-01T08:42:57.511Z,1017.29
2023-06-01T08:43:58.384Z,1017.29
2023-06-01T08:44:59.291Z,1017.29
2023-06-01T08:46:00.469Z,1017.28
2023-06-01T08:47:01.061Z,1017.28
2023-06-01T08:48:01.991Z,1017.30
2023-06-01T08:49:02.478Z,1017.31
2023-06-01T08:50:03.418Z,1017.32
2023-06-01T08:51:04.289Z,1017.32
2023-06-01T08:52:05.246Z,1017.32
2023-06-01T08:53:06.088Z,1017.32
2023-06-01T08:54:06.991Z,1017.32
2023-06-01T08:55:07.876Z,1017.32
2023-06-01T08:56:08.793Z,1017.31
2023-06-01T08:57:09.657Z,1017.29
2023-06-01T08:58:10.573Z,1017.29
2023-06-01T08:59:11.469Z,1017.28
2023-06-01T09:00:13.557Z,1017.28
2023-06-01T09:01:12.999Z,1017.28
2023-06-01T09:02:13.857Z,1017.26
2023-06-01T09:03:14.864Z,1017.27
2023-06-01T09:04:15.792Z,1017.26
2023-06-01T09:05:16.727Z,1017.25
2023-06-01T09:06:17.594Z,1017.25
2023-06-01T09:07:18.456Z,1017.24
2023-06-01T09:08:19.374Z,1017.24
2023-06-01T09:09:20.420Z,1017.23
2023-06-01T09:10:20.794Z,1017.24
2023-06-01T09:11:21.699Z,1017.25
2023-06-01T09:12:22.623Z,1017.26
2023-06-01T09:13:23.539Z,1017.26
2023-06-01T09:14:24.432Z,1017.26
2023-06-01T09:15:25.322Z,1017.23
2023-06-01T09:16:26.219Z,1017.22
2023-06-01T09:17:27.159Z,1017.23
2023-06-01T09:18:28.038Z,1017.22
2023-06-01T09:19:28.917Z,1017.23
2023-06-01T09:20:29.810Z,1017.21
2023-06-01T09:21:30.740Z,1017.20
2023-06-01T09:22:31.697Z,1017.20
2023-06-01T09:23:32.559Z,1017.19
2023-06-01T09:24:33.429Z,1017.17
2023-06-01T09:25:34.335Z,1017.16
2023-06-01T09:26:35.239Z,1017.15
2023-06-01T09:27:36.134Z,1017.13
2023-06-01T09:28:37.039Z,1017.11
2023-06-01T09:29:37.914Z,1017.11
2023-06-01T09:30:38.804Z,1017.10
2023-06-01T09:31:39.780Z,1017.11
2023-06-01T09:32:40.682Z,1017.11
2023-06-01T09:33:41.538Z,1017.10
2023-06-01T09:34:42.445Z,1017.10
2023-06-01T09:35:43.371Z,1017.06
2023-06-01T09:36:44.267Z,1017.05
2023-06-01T09:37:45.147Z,1017.03
2023-06-01T09:38:46.065Z,1017.01
2023-06-01T09:39:46.956Z,1016.98
2023-06-01T09:40:47.860Z,1016.98
2023-06-01T09:41:48.762Z,1016.97
2023-06-01T09:42:49.641Z,1016.95
2023-06-01T09:43:50.538Z,1016.94
2023-06-01T09:44:51.440Z,1016.92
2023-06-01T09:45:52.365Z,1016.91
2023-06-01T09:46:53.303Z,1016.91
2023-06-01T09:47:54.348Z,1016.88
2023-06-01T09:48:54.727Z,1016.85
2023-06-01T09:49:55.655Z,1016.85
2023-06-01T09:50:56.542Z,1016.85
2023-06-01T09:51:57.422Z,1016.84
2023-06-01T09:52:58.311Z,1016.85
2023-06-01T09:53:59.230Z,1016.85
2023-06-01T09:55:00.190Z,1016.86
2023-06-01T09:56:01.223Z,1016.87
2023-06-01T09:57:10.668Z,1016.87
2023-06-01T09:58:03.448Z,1016.88
2023-06-01T09:59:03.377Z,1016.86
2023-06-01T10:00:04.273Z,1016.88
2023-06-01T10:01:05.261Z,1016.89
2023-06-01T10:02:06.180Z,1016.89
2023-06-01T10:03:07.088Z,1016.88
2023-06-01T10:04:08.085Z,1016.85
2023-06-01T10:05:08.497Z,1016.85
2023-06-01T10:06:09.381Z,1016.84
2023-06-01T10:07:10.280Z,1016.85
2023-06-01T10:08:11.189Z,1016.86
2023-06-01T10:09:12.101Z,1016.85
2023-06-01T10:10:12.982Z,1016.84
2023-06-01T10:11:13.862Z,1016.83
2023-06-01T10:12:14.752Z,1016.83
2023-06-01T10:13:15.658Z,1016.84
2023-06-01T10:14:16.570Z,1016.84
2023-06-01T10:15:30.465Z,1016.84
2023-06-01T10:16:19.242Z,1016.83
2023-06-01T10:17:19.160Z,1016.82
2023-06-01T10:18:20.055Z,1016.82
2023-06-01T10:19:20.946Z,1016.80
2023-06-01T10:20:21.841Z,1016.78
2023-06-01T10:21:22.741Z,1016.79
2023-06-01T10:22:23.629Z,1016.81
2023-06-01T10:23:30.977Z,1016.80
2023-06-01T10:24:26.299Z,1016.81
2023-06-01T10:25:26.212Z,1016.82
2023-06-01T10:26:27.106Z,1016.82
2023-06-01T10:27:27.984Z,1016.83
2023-06-01T10:28:28.905Z,1016.82
2023-06-01T10:29:29.761Z,1016.82
2023-06-01T10:30:30.650Z,1016.83
2023-06-01T10:31:31.589Z,1016.82
2023-06-01T10:32:32.489Z,1016.80
2023-06-01T10:33:34.123Z,1016.78
2023-06-01T10:34:34.116Z,1016.79
2023-06-01T10:35:34.992Z,1016.77
2023-06-01T10:36:35.924Z,1016.77
2023-06-01T10:37:36.822Z,1016.79
2023-06-01T10:38:37.718Z,1016.77
2023-06-01T10:39:39.996Z,1016.76
2023-06-01T10:40:39.588Z,1016.77
2023-06-01T10:41:40.499Z,1016.78
2023-06-01T10:42:41.409Z,1016.77
2023-06-01T10:43:42.298Z,1016.79
2023-06-01T10:44:43.198Z,1016.78
2023-06-01T10:45:44.259Z,1016.78
2023-06-01T10:46:45.852Z,1016.79
2023-06-01T10:47:45.534Z,1016.79
2023-06-01T10:48:46.481Z,1016.79
2023-06-01T10:49:46.983Z,1016.78
2023-06-01T10:50:47.873Z,1016.78
2023-06-01T10:51:48.763Z,1016.77
2023-06-01T10:52:49.684Z,1016.75
2023-06-01T10:53:50.549Z,1016.74
2023-06-01T10:54:51.473Z,1016.73
2023-06-01T10:55:52.386Z,1016.71
2023-06-01T10:56:53.271Z,1016.71
2023-06-01T10:57:54.159Z,1016.70
2023-06-01T10:58:58.381Z,1016.70
2023-06-01T10:59:56.877Z,1016.70
2023-06-01T11:00:56.772Z,1016.70
2023-06-01T11:01:57.660Z,1016.69
2023-06-01T11:02:58.712Z,1016.70
2023-06-01T11:03:59.259Z,1016.70
2023-06-01T11:04:59.968Z,1016.70
2023-06-01T11:06:00.424Z,1016.69
2023-06-01T11:07:01.299Z,1016.69
2023-06-01T11:08:02.211Z,1016.66
2023-06-01T11:09:03.115Z,1016.66
2023-06-01T11:10:04.023Z,1016.68
2023-06-01T11:11:05.357Z,1016.65
2023-06-01T11:12:05.616Z,1016.65
2023-06-01T11:13:06.495Z,1016.63
2023-06-01T11:14:07.449Z,1016.61
2023-06-01T11:15:07.924Z,1016.59
2023-06-01T11:16:10.303Z,1016.58
2023-06-01T11:17:09.646Z,1016.57
2023-06-01T11:18:10.575Z,1016.57
2023-06-01T11:19:11.469Z,1016.56
2023-06-01T11:20:12.392Z,1016.55
2023-06-01T11:21:20.831Z,1016.55
2023-06-01T11:22:14.207Z,1016.51
2023-06-01T11:23:15.107Z,1016.50
2023-06-01T11:24:16.099Z,1016.49
2023-06-01T11:25:17.003Z,1016.47
2023-06-01T11:26:17.856Z,1016.49
2023-06-01T11:27:18.738Z,1016.49
2023-06-01T11:28:19.646Z,1016.50
2023-06-01T11:29:20.550Z,1016.51
2023-06-01T11:30:21.434Z,1016.51
2023-06-01T11:31:23.586Z,1016.51
2023-06-01T11:32:22.931Z,1016.52
2023-06-01T11:33:23.854Z,1016.52
2023-06-01T11:34:24.725Z,1016.54
2023-06-01T11:35:25.625Z,1016.54
2023-06-01T11:36:26.530Z,1016.54
2023-06-01T11:37:27.457Z,1016.56
2023-06-01T11:38:28.355Z,1016.56
2023-06-01T11:39:29.257Z,1016.56
2023-06-01T11:40:33.632Z,1016.56
2023-06-01T11:41:31.911Z,1016.56
2023-06-01T11:42:31.820Z,1016.55
2023-06-01T11:43:32.726Z,1016.53
2023-06-01T11:44:33.623Z,1016.53
2023-06-01T11:45:34.511Z,1016.54
2023-06-01T11:46:35.451Z,1016.54
2023-06-01T11:47:36.413Z,1016.55
2023-06-01T11:48:37.287Z,1016.54
2023-06-01T11:49:38.168Z,1016.54
2023-06-01T11:50:39.046Z,1016.51
2023-06-01T11:51:39.998Z,1016.52
2023-06-01T11:52:40.946Z,1016.52
2023-06-01T11:53:41.812Z,1016.51
2023-06-01T11:54:42.701Z,1016.49
2023-06-01T11:55:43.594Z,1016.49
2023-06-01T11:56:44.540Z,1016.47
2023-06-01T11:57:45.434Z,1016.48
2023-06-01T11:58:46.329Z,1016.47
2023-06-01T11:59:47.202Z,1016.47
2023-06-01T12:00:48.122Z,1016.46
2023-06-01T12:01:49.151Z,1016.46
2023-06-01T12:02:49.932Z,1016.45
2023-06-01T12:03:50.129Z,1016.44
2023-06-01T12:04:51.048Z,1016.44
2023-06-01T12:05:51.943Z,1016.44
2023-06-01T12:06:52.831Z,1016.44
2023-06-01T12:07:53.714Z,1016.43
2023-06-01T12:08:54.598Z,1016.43
2023-06-01T12:09:55.498Z,1016.42
2023-06-01T12:10:56.415Z,1016.41
2023-06-01T12:11:57.301Z,1016.41
2023-06-01T12:12:58.186Z,1016.39
2023-06-01T12:13:59.144Z,1016.40
2023-06-01T12:15:00.062Z,1016.39
2023-06-01T12:16:10.297Z,1016.38